createdAt,value
2022-08-16T00:01:29.016Z,8.50
2022-08-16T00:04:05.163Z,7.70
2022-08-16T00:06:36.537Z,6.20
2022-08-16T00:09:10.719Z,7.90
2022-08-16T00:11:41.052Z,7.60
2022-08-16T00:14:13.650Z,7.10
2022-08-16T00:17:01.376Z,7.80
2022-08-16T00:19:41.121Z,8.10
2022-08-16T00:22:13.338Z,7.30
2022-08-16T00:24:47.032Z,6.70
2022-08-16T00:27:20.350Z,7.20
2022-08-16T00:30:00.683Z,6.00
2022-08-16T00:32:32.937Z,9.20
2022-08-16T00:35:01.914Z,8.10
2022-08-16T00:37:57.485Z,8.30
2022-08-16T00:40:33.573Z,6.60
2022-08-16T00:43:11.919Z,7.40
2022-08-16T00:45:58.070Z,7.80
2022-08-16T00:48:40.352Z,5.70
2022-08-16T00:51:15.973Z,6.40
2022-08-16T00:53:47.082Z,6.50
2022-08-16T00:56:20.103Z,7.40
2022-08-16T00:59:11.191Z,8.60
2022-08-16T01:01:45.484Z,8.00
2022-08-16T01:04:28.967Z,6.60
2022-08-16T01:07:02.012Z,7.40
2022-08-16T01:09:34.497Z,8.10
2022-08-16T01:12:10.610Z,6.30
2022-08-16T01:14:44.884Z,7.20
2022-08-16T01:17:19.383Z,8.70
2022-08-16T01:19:51.673Z,8.40
2022-08-16T01:22:57.597Z,7.30
2022-08-16T01:25:33.652Z,6.30
2022-08-16T01:28:06.966Z,6.30
2022-08-16T01:30:40.129Z,6.40
2022-08-16T01:33:20.008Z,6.20
2022-08-16T01:35:56.223Z,7.70
2022-08-16T01:38:30.604Z,8.00
2022-08-16T01:41:04.305Z,8.10
2022-08-16T01:43:35.848Z,6.60
2022-08-16T01:46:37.277Z,7.60
2022-08-16T01:49:01.166Z,7.50
2022-08-16T01:51:31.275Z,7.40
2022-08-16T01:54:01.015Z,7.20
2022-08-16T01:56:32.064Z,6.80
2022-08-16T01:59:05.249Z,7.70
2022-08-16T02:01:35.121Z,9.40
2022-08-16T02:04:10.879Z,7.90
2022-08-16T02:06:46.613Z,8.40
2022-08-16T02:11:53.464Z,6.70
2022-08-16T02:14:26.558Z,7.50
2022-08-16T02:16:57.463Z,8.70
2022-08-16T02:19:59.561Z,9.80
2022-08-16T02:22:33.577Z,8.10
2022-08-16T02:25:10.122Z,9.80
2022-08-16T02:27:41.035Z,10.90
2022-08-16T02:30:37.533Z,9.30
2022-08-16T02:33:07.576Z,8.30
2022-08-16T02:35:49.724Z,7.40
2022-08-16T02:38:23.918Z,8.60
2022-08-16T02:40:54.581Z,8.10
2022-08-16T02:43:26.886Z,8.00
2022-08-16T02:45:57.499Z,8.30
2022-08-16T02:48:29.788Z,8.40
2022-08-16T02:51:10.691Z,8.00
2022-08-16T02:53:43.754Z,8.80
2022-08-16T02:56:15.609Z,9.30
2022-08-16T02:58:46.704Z,8.50
2022-08-16T03:01:24.721Z,10.10
2022-08-16T03:04:40.101Z,9.70
2022-08-16T03:06:44.817Z,10.10
2022-08-16T03:09:16.325Z,9.10
2022-08-16T03:11:45.511Z,9.60
2022-08-16T03:14:14.998Z,10.00
2022-08-16T03:19:47.175Z,10.20
2022-08-16T03:22:28.328Z,10.10
2022-08-16T03:25:01.426Z,11.40
2022-08-16T03:27:32.527Z,10.50
2022-08-16T03:30:17.300Z,12.80
2022-08-16T03:32:51.740Z,10.10
2022-08-16T03:35:32.682Z,11.90
2022-08-16T03:38:32.422Z,10.30
2022-08-16T03:40:56.086Z,10.70
2022-08-16T03:43:51.471Z,12.20
2022-08-16T03:46:44.559Z,11.30
2022-08-16T03:49:05.380Z,11.40
2022-08-16T03:51:36.788Z,12.40
2022-08-16T03:54:12.508Z,9.60
2022-08-16T03:56:57.205Z,11.00
2022-08-16T03:59:29.860Z,9.20
2022-08-16T04:02:01.250Z,10.60
2022-08-16T04:04:33.551Z,8.80
2022-08-16T04:07:03.611Z,10.40
2022-08-16T04:09:35.252Z,11.00
2022-08-16T04:12:10.715Z,10.30
2022-08-16T04:17:17.364Z,10.20
2022-08-16T04:19:46.598Z,11.40
2022-08-16T04:22:17.343Z,10.00
2022-08-16T04:24:54.416Z,10.00
2022-08-16T04:27:24.689Z,11.00
2022-08-16T04:30:02.950Z,10.50
2022-08-16T04:32:32.557Z,9.30
2022-08-16T04:35:06.766Z,10.70
2022-08-16T04:37:42.177Z,10.50
2022-08-16T04:40:21.891Z,8.70
2022-08-16T04:42:54.800Z,9.50
2022-08-16T04:45:35.669Z,11.10
2022-08-16T04:48:06.769Z,8.90
2022-08-16T04:50:37.188Z,10.70
2022-08-16T04:53:12.335Z,9.80
2022-08-16T04:55:44.869Z,10.10
2022-08-16T04:58:44.472Z,10.20
2022-08-16T05:01:03.708Z,9.10
2022-08-16T05:03:59.991Z,10.10
2022-08-16T05:06:44.821Z,9.70
2022-08-16T05:09:16.281Z,8.20
2022-08-16T05:11:45.579Z,11.20
2022-08-16T05:14:20.263Z,9.10
2022-08-16T05:17:07.014Z,9.10
2022-08-16T05:19:36.643Z,10.50
2022-08-16T05:22:05.851Z,9.00
2022-08-16T05:24:34.765Z,8.80
2022-08-16T05:27:11.581Z,8.40
2022-08-16T05:29:59.339Z,9.60
2022-08-16T05:32:32.749Z,8.60
2022-08-16T05:35:11.025Z,9.10
2022-08-16T05:37:41.568Z,9.50
2022-08-16T05:40:13.449Z,9.70
2022-08-16T05:42:46.163Z,9.50
2022-08-16T05:45:21.477Z,8.90
2022-08-16T05:48:00.251Z,10.40
2022-08-16T05:50:33.873Z,9.40
2022-08-16T05:53:03.411Z,10.10
2022-08-16T05:55:35.158Z,8.30
2022-08-16T05:58:09.841Z,10.40
2022-08-16T06:00:58.618Z,9.30
2022-08-16T06:03:29.452Z,9.20
2022-08-16T06:06:00.565Z,9.00
2022-08-16T06:08:31.930Z,9.40
2022-08-16T06:11:06.336Z,9.80
2022-08-16T06:13:42.483Z,9.60
2022-08-16T06:16:17.907Z,10.60
2022-08-16T06:21:22.509Z,9.50
2022-08-16T06:23:54.273Z,9.20
2022-08-16T06:26:23.633Z,9.20
2022-08-16T06:29:04.014Z,10.80
2022-08-16T06:31:46.638Z,10.80
2022-08-16T06:34:31.668Z,10.40
2022-08-16T06:37:07.413Z,10.20
2022-08-16T06:39:46.610Z,9.50
2022-08-16T06:42:19.366Z,10.80
2022-08-16T06:44:49.947Z,9.40
2022-08-16T06:47:19.159Z,8.90
2022-08-16T06:49:52.611Z,9.90
2022-08-16T06:53:19.605Z,9.90
2022-08-16T06:55:12.995Z,9.80
2022-08-16T06:57:43.184Z,9.10
2022-08-16T07:00:24.814Z,11.60
2022-08-16T07:02:54.347Z,10.50
2022-08-16T07:05:27.070Z,11.30
2022-08-16T07:08:11.327Z,11.70
2022-08-16T07:10:41.706Z,10.20
2022-08-16T07:13:11.999Z,9.80
2022-08-16T07:15:50.032Z,10.30
2022-08-16T07:18:20.587Z,10.10
2022-08-16T07:20:50.956Z,8.20
2022-08-16T07:23:20.242Z,10.00
2022-08-16T07:25:49.156Z,12.80
2022-08-16T07:28:20.728Z,9.40
2022-08-16T07:30:50.225Z,8.70
2022-08-16T07:33:52.712Z,9.20
2022-08-16T07:36:09.791Z,8.80
2022-08-16T07:38:40.163Z,9.60
2022-08-16T07:41:10.978Z,8.70
2022-08-16T07:43:41.722Z,22.00
2022-08-16T07:46:39.276Z,13.60
2022-08-16T07:49:02.527Z,9.60
2022-08-16T07:51:34.376Z,12.30
2022-08-16T07:54:09.715Z,9.70
2022-08-16T07:56:39.721Z,10.10
2022-08-16T07:59:08.540Z,10.80
2022-08-16T08:01:38.043Z,9.20
2022-08-16T08:04:11.351Z,9.00
2022-08-16T08:06:42.461Z,9.90
2022-08-16T08:09:11.365Z,10.50
2022-08-16T08:11:40.684Z,9.90
2022-08-16T08:14:31.867Z,10.30
2022-08-16T08:17:01.670Z,11.00
2022-08-16T08:19:31.593Z,10.60
2022-08-16T08:22:05.961Z,10.90
2022-08-16T08:24:38.223Z,11.20
2022-08-16T08:27:08.910Z,11.50
2022-08-16T08:29:40.341Z,9.90
2022-08-16T08:32:58.094Z,9.60
2022-08-16T08:35:03.813Z,10.70
2022-08-16T08:37:54.570Z,8.30
2022-08-16T08:40:26.570Z,10.20
2022-08-16T08:42:57.709Z,9.90
2022-08-16T08:45:48.789Z,9.90
2022-08-16T08:48:34.369Z,12.20
2022-08-16T08:53:33.960Z,10.90
2022-08-16T08:56:22.554Z,11.90
2022-08-16T08:58:58.229Z,11.40
2022-08-16T09:01:36.858Z,10.50
2022-08-16T09:04:14.882Z,10.50
2022-08-16T09:09:16.552Z,11.40
2022-08-16T09:11:53.310Z,11.90
2022-08-16T09:14:23.839Z,10.40
2022-08-16T09:17:00.923Z,9.50
2022-08-16T09:19:33.866Z,15.40
2022-08-16T09:22:03.337Z,10.60
2022-08-16T09:24:52.375Z,10.40
2022-08-16T09:27:23.547Z,9.10
2022-08-16T09:30:00.295Z,10.90
2022-08-16T09:32:31.205Z,8.70
2022-08-16T09:35:01.775Z,9.50
2022-08-16T09:37:36.378Z,9.70
2022-08-16T09:40:31.692Z,9.50
2022-08-16T09:42:59.750Z,8.80
2022-08-16T09:45:29.557Z,9.80
2022-08-16T09:47:58.873Z,8.40
2022-08-16T09:50:37.136Z,8.00
2022-08-16T09:53:15.077Z,9.40
2022-08-16T09:55:49.160Z,9.50
2022-08-16T09:58:40.498Z,9.00
2022-08-16T10:01:08.745Z,33.40
2022-08-16T10:04:02.773Z,9.50
2022-08-16T10:06:33.683Z,8.30
2022-08-16T10:09:06.445Z,8.40
2022-08-16T10:11:56.227Z,9.50
2022-08-16T10:14:46.096Z,8.80
2022-08-16T10:17:16.656Z,8.20
2022-08-16T10:19:46.456Z,8.20
2022-08-16T10:22:19.445Z,8.40
2022-08-16T10:24:55.998Z,10.50
2022-08-16T10:27:45.625Z,9.10
2022-08-16T10:30:25.190Z,9.10
2022-08-16T10:32:55.567Z,7.60
2022-08-16T10:35:24.767Z,7.80
2022-08-16T10:38:02.389Z,9.10
2022-08-16T10:40:36.420Z,8.00
2022-08-16T10:43:08.210Z,7.40
2022-08-16T10:45:59.997Z,7.40
2022-08-16T10:48:31.226Z,8.30
2022-08-16T10:51:00.323Z,7.70
2022-08-16T10:53:32.711Z,8.10
2022-08-16T10:56:06.222Z,8.00
2022-08-16T10:58:35.818Z,9.10
2022-08-16T11:03:57.390Z,8.40
2022-08-16T11:06:27.935Z,8.30
2022-08-16T11:14:36.393Z,8.60
2022-08-16T11:17:11.191Z,8.90
2022-08-16T11:22:42.158Z,8.90
2022-08-16T11:28:10.715Z,7.60
2022-08-16T11:30:40.821Z,7.80
2022-08-16T11:33:10.853Z,9.00
2022-08-16T11:35:44.248Z,7.60
2022-08-16T11:38:46.897Z,9.70
2022-08-16T11:41:06.851Z,8.40
2022-08-16T11:43:39.867Z,7.20
2022-08-16T11:46:44.586Z,8.50
2022-08-16T11:49:01.639Z,9.70
2022-08-16T11:51:31.637Z,8.30
2022-08-16T11:54:01.342Z,7.60
2022-08-16T11:56:51.732Z,7.70
2022-08-16T11:59:24.385Z,8.20
2022-08-16T12:01:59.163Z,7.70
2022-08-16T12:04:28.669Z,6.90
2022-08-16T12:06:59.007Z,8.30
2022-08-16T12:09:29.860Z,8.60
2022-08-16T12:12:01.550Z,7.80
2022-08-16T12:14:35.382Z,7.90
2022-08-16T12:17:08.295Z,8.60
2022-08-16T12:19:38.196Z,8.10
2022-08-16T12:22:18.933Z,8.10
2022-08-16T12:24:52.328Z,7.70
2022-08-16T12:27:24.405Z,6.90
2022-08-16T12:29:54.331Z,8.50
2022-08-16T12:32:37.887Z,7.10
2022-08-16T12:35:12.141Z,7.60
2022-08-16T12:37:46.250Z,7.20
2022-08-16T12:40:24.774Z,8.50
2022-08-16T12:42:58.625Z,5.80
2022-08-16T12:45:30.613Z,7.80
2022-08-16T12:48:34.977Z,8.60
2022-08-16T12:51:10.904Z,8.20
2022-08-16T12:53:46.740Z,8.40
2022-08-16T12:56:15.746Z,8.90
2022-08-16T12:58:51.650Z,9.00
2022-08-16T13:01:24.049Z,9.60
2022-08-16T13:04:11.625Z,9.20
2022-08-16T13:06:44.964Z,8.00
2022-08-16T13:09:21.111Z,8.40
2022-08-16T13:12:01.045Z,8.00
2022-08-16T13:14:34.691Z,8.80
2022-08-16T13:17:06.671Z,9.20
2022-08-16T13:20:06.114Z,8.00
2022-08-16T13:22:27.095Z,9.50
2022-08-16T13:24:56.018Z,7.90
2022-08-16T13:28:01.427Z,9.40
2022-08-16T13:30:36.100Z,9.60
2022-08-16T13:33:11.334Z,9.00
2022-08-16T13:35:45.124Z,8.70
2022-08-16T13:38:21.589Z,8.20
2022-08-16T13:40:56.703Z,9.10
2022-08-16T13:43:27.602Z,9.60
2022-08-16T13:46:04.412Z,11.40
2022-08-16T13:48:42.908Z,10.50
2022-08-16T13:51:17.429Z,9.20
2022-08-16T13:53:54.921Z,11.00
2022-08-16T13:56:35.970Z,11.20
2022-08-16T13:59:19.211Z,10.10
2022-08-16T14:01:55.950Z,11.60
2022-08-16T14:04:27.827Z,11.10
2022-08-16T14:06:57.967Z,11.40
2022-08-16T14:09:28.511Z,10.70
2022-08-16T14:12:00.465Z,12.90
2022-08-16T14:14:30.401Z,14.60
2022-08-16T14:17:02.543Z,13.50
2022-08-16T14:19:31.358Z,12.20
2022-08-16T14:22:15.124Z,12.40
2022-08-16T14:24:52.519Z,12.40
2022-08-16T14:27:25.324Z,12.00
2022-08-16T14:29:56.395Z,11.60
2022-08-16T14:32:34.386Z,10.80
2022-08-16T14:35:07.701Z,10.00
2022-08-16T14:37:37.383Z,10.80
2022-08-16T14:40:10.070Z,10.50
2022-08-16T14:42:44.179Z,10.40
2022-08-16T14:45:15.728Z,8.20
2022-08-16T14:47:46.193Z,9.80
2022-08-16T14:50:22.450Z,10.30
2022-08-16T14:52:57.539Z,8.90
2022-08-16T14:55:29.599Z,10.30
2022-08-16T14:57:59.381Z,10.70
2022-08-16T15:00:34.013Z,9.90
2022-08-16T15:03:09.773Z,9.10
2022-08-16T15:05:40.929Z,9.10
2022-08-16T15:08:10.769Z,9.90
2022-08-16T15:10:45.634Z,8.70
2022-08-16T15:13:16.421Z,8.10
2022-08-16T15:15:56.346Z,8.10
2022-08-16T15:18:31.803Z,7.30
2022-08-16T15:21:01.930Z,6.60
2022-08-16T15:23:31.452Z,7.50
2022-08-16T15:26:04.426Z,8.40
2022-08-16T15:28:38.073Z,8.70
2022-08-16T15:31:09.377Z,8.30
2022-08-16T15:33:44.318Z,7.80
2022-08-16T15:36:18.592Z,6.70
2022-08-16T15:39:04.986Z,7.40
2022-08-16T15:41:55.950Z,7.40
2022-08-16T15:44:37.695Z,7.00
2022-08-16T15:47:15.829Z,7.10
2022-08-16T15:49:53.138Z,6.20
2022-08-16T15:52:29.725Z,6.30
2022-08-16T15:55:13.331Z,6.50
2022-08-16T15:57:51.292Z,7.10
2022-08-16T16:00:21.031Z,5.90
2022-08-16T16:02:58.964Z,6.10
2022-08-16T16:05:27.904Z,5.70
2022-08-16T16:08:12.283Z,5.10
2022-08-16T16:10:43.639Z,7.30
2022-08-16T16:13:23.990Z,5.60
2022-08-16T16:15:55.573Z,5.40
2022-08-16T16:18:25.821Z,6.10
2022-08-16T16:20:57.220Z,4.80
2022-08-16T16:23:29.281Z,5.50
2022-08-16T16:25:59.937Z,5.60
2022-08-16T16:29:06.023Z,6.10
2022-08-16T16:31:26.382Z,6.90
2022-08-16T16:33:57.299Z,7.90
2022-08-16T16:36:29.591Z,6.00
2022-08-16T16:38:59.492Z,7.20
2022-08-16T16:41:30.419Z,6.00
2022-08-16T16:44:00.878Z,7.00
2022-08-16T16:46:42.648Z,6.00
2022-08-16T16:49:14.424Z,5.30
2022-08-16T16:51:47.207Z,6.30
2022-08-16T16:54:27.995Z,5.40
2022-08-16T16:56:58.157Z,6.10
2022-08-16T16:59:28.402Z,6.60
2022-08-16T17:02:41.746Z,9.10
2022-08-16T17:04:48.873Z,6.30
2022-08-16T17:07:24.034Z,5.90
2022-08-16T17:09:53.927Z,6.20
2022-08-16T17:12:25.143Z,6.60
2022-08-16T17:15:14.918Z,6.50
2022-08-16T17:18:00.288Z,6.70
2022-08-16T17:22:58.871Z,6.20
2022-08-16T17:25:36.289Z,5.80
2022-08-16T17:28:59.172Z,7.60
2022-08-16T17:30:57.900Z,7.80
2022-08-16T17:33:28.040Z,6.70
2022-08-16T17:36:08.661Z,7.30
2022-08-16T17:38:43.749Z,6.70
2022-08-16T17:41:15.011Z,5.90
2022-08-16T17:43:44.996Z,6.90
2022-08-16T17:46:50.424Z,7.90
2022-08-16T17:49:05.733Z,7.70
2022-08-16T17:51:35.854Z,7.70
2022-08-16T17:54:06.152Z,9.20
2022-08-16T17:56:34.946Z,8.90
2022-08-16T17:59:03.965Z,7.80
2022-08-16T18:01:32.823Z,8.40
2022-08-16T18:04:07.604Z,9.60
2022-08-16T18:06:39.440Z,9.00
2022-08-16T18:09:09.345Z,9.00
2022-08-16T18:11:43.094Z,9.40
2022-08-16T18:14:15.198Z,8.70
2022-08-16T18:16:45.627Z,8.90
2022-08-16T18:19:14.873Z,8.90
2022-08-16T18:22:02.148Z,10.00
2022-08-16T18:24:31.044Z,9.20
2022-08-16T18:27:24.882Z,9.30
2022-08-16T18:29:52.112Z,9.50
2022-08-16T18:32:21.998Z,10.00
2022-08-16T18:34:54.157Z,9.40
2022-08-16T18:37:23.861Z,9.50
2022-08-16T18:39:52.719Z,10.00
2022-08-16T18:42:21.551Z,9.00
2022-08-16T18:44:50.327Z,9.90
2022-08-16T18:47:19.064Z,9.50
2022-08-16T18:49:47.911Z,10.90
2022-08-16T18:52:25.237Z,9.00
2022-08-16T18:54:58.871Z,10.80
2022-08-16T18:57:36.866Z,11.90
2022-08-16T19:00:11.827Z,21.60
2022-08-16T19:02:57.981Z,27.90
2022-08-16T19:05:30.292Z,35.40
2022-08-16T19:08:00.342Z,25.90
2022-08-16T19:10:30.936Z,15.30
2022-08-16T19:13:04.464Z,15.60
2022-08-16T19:15:33.642Z,12.90
2022-08-16T19:18:02.512Z,12.50
2022-08-16T19:20:31.443Z,13.50
2022-08-16T19:23:05.667Z,15.90
2022-08-16T19:25:49.109Z,15.50
2022-08-16T19:28:52.088Z,14.40
2022-08-16T19:31:17.821Z,15.10
2022-08-16T19:33:54.129Z,14.50
2022-08-16T19:36:35.110Z,14.30
2022-08-16T19:39:08.654Z,12.90
2022-08-16T19:41:40.805Z,11.50
2022-08-16T19:44:10.406Z,13.00
2022-08-16T19:46:44.299Z,13.90
2022-08-16T19:49:15.997Z,14.80
2022-08-16T19:51:46.513Z,15.60
2022-08-16T19:54:16.073Z,12.80
2022-08-16T19:56:44.879Z,12.00
2022-08-16T19:59:22.358Z,14.40
2022-08-16T20:02:04.164Z,12.40
2022-08-16T20:04:33.065Z,12.00
2022-08-16T20:07:01.884Z,13.50
2022-08-16T20:09:32.680Z,13.40
2022-08-16T20:12:06.612Z,15.90
2022-08-16T20:14:35.460Z,15.20
2022-08-16T20:17:04.656Z,13.40
2022-08-16T20:19:37.011Z,13.50
2022-08-16T20:22:49.817Z,13.10
2022-08-16T20:25:13.737Z,13.20
2022-08-16T20:27:43.144Z,13.50
2022-08-16T20:30:14.208Z,12.80
2022-08-16T20:32:44.848Z,15.60
2022-08-16T20:35:16.741Z,13.30
2022-08-16T20:37:46.899Z,12.60
2022-08-16T20:40:34.454Z,14.00
2022-08-16T20:43:07.977Z,15.10
2022-08-16T20:45:38.066Z,13.90
2022-08-16T20:48:07.505Z,14.50
2022-08-16T20:50:36.836Z,14.00
2022-08-16T20:53:06.374Z,13.60
2022-08-16T20:55:36.973Z,13.90
2022-08-16T20:58:05.779Z,13.80
2022-08-16T21:00:34.792Z,11.80
2022-08-16T21:03:07.084Z,12.70
2022-08-16T21:05:36.587Z,12.50
2022-08-16T21:08:29.505Z,12.40
2022-08-16T21:10:56.202Z,11.10
2022-08-16T21:13:25.423Z,11.50
2022-08-16T21:15:54.559Z,12.50
2022-08-16T21:18:23.403Z,9.40
2022-08-16T21:20:52.957Z,10.20
2022-08-16T21:23:22.145Z,10.40
2022-08-16T21:25:58.794Z,12.20
2022-08-16T21:28:41.465Z,11.00
2022-08-16T21:31:12.586Z,11.90
2022-08-16T21:33:42.539Z,13.50
2022-08-16T21:36:12.527Z,14.50
2022-08-16T21:38:41.364Z,15.00
2022-08-16T21:41:12.255Z,14.80
2022-08-16T21:43:41.830Z,15.60
2022-08-16T21:46:10.745Z,13.80
2022-08-16T21:48:40.693Z,14.70
2022-08-16T21:51:13.199Z,12.90
2022-08-16T21:53:43.235Z,15.30
2022-08-16T21:56:16.874Z,13.20
2022-08-16T21:58:46.642Z,13.60
2022-08-16T22:01:22.784Z,14.10
2022-08-16T22:04:01.748Z,15.70
2022-08-16T22:06:42.225Z,14.90
2022-08-16T22:09:14.563Z,15.80
2022-08-16T22:11:44.021Z,13.50
2022-08-16T22:14:13.005Z,13.40
2022-08-16T22:16:42.872Z,14.60
2022-08-16T22:19:12.683Z,14.20
2022-08-16T22:21:41.664Z,13.80
2022-08-16T22:24:10.923Z,15.00
2022-08-16T22:26:43.054Z,12.70
2022-08-16T22:29:14.192Z,14.30
2022-08-16T22:31:43.790Z,11.40
2022-08-16T22:34:12.656Z,14.60
2022-08-16T22:36:42.112Z,13.60
2022-08-16T22:39:13.117Z,14.60
2022-08-16T22:41:44.904Z,13.50
2022-08-16T22:44:13.740Z,15.50
2022-08-16T22:46:42.600Z,13.30
2022-08-16T22:49:12.314Z,14.20
2022-08-16T22:51:41.632Z,13.40
2022-08-16T22:54:42.570Z,12.50
2022-08-16T22:56:59.406Z,11.50
2022-08-16T22:59:29.862Z,12.00
2022-08-16T23:01:58.842Z,13.40
2022-08-16T23:04:27.893Z,12.10
2022-08-16T23:06:57.055Z,10.90
2022-08-16T23:09:26.032Z,12.40
2022-08-16T23:11:54.935Z,11.90
2022-08-16T23:14:24.332Z,12.70
2022-08-16T23:16:53.148Z,11.00
2022-08-16T23:19:21.983Z,12.70
2022-08-16T23:21:52.332Z,13.40
2022-08-16T23:24:21.297Z,11.70
2022-08-16T23:26:50.334Z,16.50
2022-08-16T23:29:24.732Z,12.00
2022-08-16T23:31:58.598Z,11.90
2022-08-16T23:34:28.870Z,11.60
2022-08-16T23:36:57.709Z,11.40
2022-08-16T23:39:26.618Z,11.60
2022-08-16T23:41:55.475Z,11.00
2022-08-16T23:44:58.533Z,12.80
2022-08-16T23:47:13.558Z,11.20
2022-08-16T23:49:56.290Z,12.30
2022-08-16T23:52:43.743Z,11.40
2022-08-16T23:55:20.301Z,11.30
2022-08-16T23:57:49.245Z,11.20
